createdAt,value
2022-11-14T00:00:45.863Z,99301.09
2022-11-14T00:03:13.324Z,99295.34
2022-11-14T00:05:42.449Z,99293.50
2022-11-14T00:08:36.096Z,99291.84
2022-11-14T00:11:03.259Z,99280.69
2022-11-14T00:13:30.125Z,99280.69
2022-11-14T00:15:57.459Z,99287.31
2022-11-14T00:18:24.271Z,99274.56
2022-11-14T00:20:52.582Z,99263.19
2022-11-14T00:23:22.842Z,99263.63
2022-11-14T00:25:49.901Z,99264.91
2022-11-14T00:28:16.855Z,99257.00
2022-11-14T00:30:47.577Z,99260.38
2022-11-14T00:33:19.849Z,99261.28
2022-11-14T00:35:52.185Z,99261.81
2022-11-14T00:38:18.880Z,99262.69
2022-11-14T00:40:45.605Z,99273.44
2022-11-14T00:43:12.870Z,99265.50
2022-11-14T00:45:39.649Z,99273.38
2022-11-14T00:48:06.720Z,99259.16
2022-11-14T00:50:33.467Z,99259.91
2022-11-14T00:53:00.358Z,99260.22
2022-11-14T00:55:27.172Z,99261.72
2022-11-14T00:57:53.943Z,99253.78
2022-11-14T01:00:21.656Z,99262.59
2022-11-14T01:02:48.341Z,99241.72
2022-11-14T01:05:15.397Z,99233.69
2022-11-14T01:07:42.063Z,99248.88
2022-11-14T01:10:09.891Z,99239.94
2022-11-14T01:12:36.653Z,99239.94
2022-11-14T01:15:04.005Z,99226.72
2022-11-14T01:17:30.838Z,99236.38
2022-11-14T01:19:57.680Z,99230.78
2022-11-14T01:22:24.524Z,99227.81
2022-11-14T01:24:51.539Z,99217.88
2022-11-14T01:27:18.777Z,99224.63
2022-11-14T01:29:45.447Z,99215.50
2022-11-14T01:32:12.770Z,99211.41
2022-11-14T01:34:39.433Z,99217.00
2022-11-14T01:37:06.346Z,99213.63
2022-11-14T01:39:33.098Z,99223.94
2022-11-14T01:41:59.942Z,99219.28
2022-11-14T01:44:49.146Z,99215.75
2022-11-14T01:47:19.613Z,99212.53
2022-11-14T01:49:49.032Z,99201.16
2022-11-14T01:52:24.829Z,99192.34
2022-11-14T01:54:56.138Z,99199.84
2022-11-14T01:57:26.188Z,99197.16
2022-11-14T01:59:55.156Z,99189.16
2022-11-14T02:02:25.144Z,99184.44
2022-11-14T02:04:56.727Z,99179.53
2022-11-14T02:07:24.986Z,99179.41
2022-11-14T02:09:52.443Z,99167.44
2022-11-14T02:12:20.208Z,99167.97
2022-11-14T02:14:49.057Z,99168.81
2022-11-14T02:17:32.691Z,99171.25
2022-11-14T02:20:35.521Z,99171.47
2022-11-14T02:23:02.303Z,99165.84
2022-11-14T02:25:29.312Z,99159.72
2022-11-14T02:27:57.183Z,99156.09
2022-11-14T02:30:23.983Z,99151.19
2022-11-14T02:33:10.069Z,99142.72
2022-11-14T02:35:38.018Z,99139.97
2022-11-14T02:38:04.729Z,99140.59
2022-11-14T02:40:31.490Z,99135.63
2022-11-14T02:42:58.261Z,99143.78
2022-11-14T02:45:25.670Z,99141.50
2022-11-14T02:47:52.328Z,99134.97
2022-11-14T02:50:19.027Z,99130.75
2022-11-14T02:52:45.792Z,99129.72
2022-11-14T02:55:13.449Z,99137.78
2022-11-14T02:57:40.440Z,99142.53
2022-11-14T03:00:14.417Z,99123.59
2022-11-14T03:02:41.821Z,99118.03
2022-11-14T03:05:09.186Z,99122.25
2022-11-14T03:07:36.003Z,99131.34
2022-11-14T03:10:03.026Z,99130.41
2022-11-14T03:12:30.530Z,99127.97
2022-11-14T03:14:57.200Z,99125.69
2022-11-14T03:17:25.096Z,99118.47
2022-11-14T03:19:51.900Z,99125.94
2022-11-14T03:22:18.552Z,99119.78
2022-11-14T03:24:45.231Z,99110.47
2022-11-14T03:27:11.889Z,99112.13
2022-11-14T03:29:38.586Z,99109.88
2022-11-14T03:32:06.184Z,99101.22
2022-11-14T03:34:47.907Z,99100.94
2022-11-14T03:37:15.671Z,99103.25
2022-11-14T03:39:42.634Z,99095.19
2022-11-14T03:42:09.926Z,99083.78
2022-11-14T03:44:36.798Z,99090.94
2022-11-14T03:47:04.103Z,99087.13
2022-11-14T03:49:30.977Z,99088.19
2022-11-14T03:51:57.673Z,99078.41
2022-11-14T03:54:24.529Z,99078.00
2022-11-14T03:56:51.235Z,99087.44
2022-11-14T03:59:17.940Z,99081.28
2022-11-14T04:01:44.873Z,99081.47
2022-11-14T04:04:12.985Z,99082.97
2022-11-14T04:06:40.005Z,99084.56
2022-11-14T04:09:07.566Z,99078.44
2022-11-14T04:11:34.343Z,99070.94
2022-11-14T04:14:01.032Z,99068.72
2022-11-14T04:16:28.056Z,99074.13
2022-11-14T04:18:54.968Z,99073.94
2022-11-14T04:21:21.627Z,99069.00
2022-11-14T04:23:48.298Z,99065.44
2022-11-14T04:26:14.934Z,99063.25
2022-11-14T04:28:41.787Z,99065.84
2022-11-14T04:31:08.660Z,99068.78
2022-11-14T04:33:35.494Z,99059.31
2022-11-14T04:36:02.166Z,99061.38
2022-11-14T04:38:29.264Z,99064.47
2022-11-14T04:40:56.302Z,99050.53
2022-11-14T04:43:23.044Z,99047.75
2022-11-14T04:45:49.754Z,99050.09
2022-11-14T04:48:16.483Z,99053.06
2022-11-14T04:50:43.277Z,99040.38
2022-11-14T04:53:10.021Z,99041.28
2022-11-14T04:55:36.910Z,99035.31
2022-11-14T04:58:04.170Z,99035.09
2022-11-14T05:00:30.981Z,99036.44
2022-11-14T05:03:01.146Z,99035.13
2022-11-14T05:05:27.905Z,99029.69
2022-11-14T05:07:55.017Z,99018.66
2022-11-14T05:10:22.182Z,99022.00
2022-11-14T05:12:48.948Z,99015.41
2022-11-14T05:15:15.680Z,99021.66
2022-11-14T05:17:42.364Z,99007.59
2022-11-14T05:20:09.989Z,99004.78
2022-11-14T05:22:37.156Z,99011.63
2022-11-14T05:25:04.601Z,99000.63
2022-11-14T05:27:31.324Z,98992.75
2022-11-14T05:29:58.221Z,99005.44
2022-11-14T05:32:25.138Z,99000.09
2022-11-14T05:34:51.902Z,98997.47
2022-11-14T05:37:18.740Z,98994.34
2022-11-14T05:39:45.593Z,99003.78
2022-11-14T05:42:12.332Z,99008.50
2022-11-14T05:44:39.113Z,99002.69
2022-11-14T05:47:05.820Z,99005.81
2022-11-14T05:49:32.628Z,99002.75
2022-11-14T05:51:59.356Z,99002.28
2022-11-14T05:54:26.317Z,98998.84
2022-11-14T05:56:53.168Z,99011.63
2022-11-14T05:59:19.852Z,98996.41
2022-11-14T06:01:46.592Z,99001.88
2022-11-14T06:04:14.220Z,98994.97
2022-11-14T06:06:41.048Z,99002.91
2022-11-14T06:09:07.869Z,98997.91
2022-11-14T06:11:34.696Z,99001.19
2022-11-14T06:14:01.543Z,99000.44
2022-11-14T06:16:28.249Z,99002.94
2022-11-14T06:18:55.066Z,98992.56
2022-11-14T06:21:24.417Z,98998.88
2022-11-14T06:23:51.281Z,98992.31
2022-11-14T06:26:22.490Z,99004.16
2022-11-14T06:28:50.610Z,98995.56
2022-11-14T06:31:18.284Z,98997.84
2022-11-14T06:33:45.495Z,99001.38
2022-11-14T06:36:12.283Z,99004.84
2022-11-14T06:38:40.434Z,99001.25
2022-11-14T06:41:09.893Z,99011.13
2022-11-14T06:43:39.702Z,99002.94
2022-11-14T06:46:08.056Z,99010.59
2022-11-14T06:48:35.387Z,99021.00
2022-11-14T06:51:03.697Z,99014.22
2022-11-14T06:53:31.932Z,99026.81
2022-11-14T06:56:10.711Z,99020.19
2022-11-14T06:58:39.743Z,99022.44
2022-11-14T07:01:17.994Z,99021.75
2022-11-14T07:03:45.416Z,99033.47
2022-11-14T07:06:14.955Z,99021.22
2022-11-14T07:08:41.893Z,99032.88
2022-11-14T07:11:22.949Z,99038.69
2022-11-14T07:13:54.801Z,99037.59
2022-11-14T07:16:25.385Z,99031.19
2022-11-14T07:18:52.075Z,99027.38
2022-11-14T07:21:18.821Z,99023.72
2022-11-14T07:23:45.632Z,99038.91
2022-11-14T07:26:13.515Z,99033.47
2022-11-14T07:28:42.429Z,99040.75
2022-11-14T07:31:14.549Z,99038.31
2022-11-14T07:33:42.160Z,99032.88
2022-11-14T07:36:09.924Z,99030.34
2022-11-14T07:38:37.764Z,99028.69
2022-11-14T07:41:10.213Z,99046.69
2022-11-14T07:43:37.379Z,99050.63
2022-11-14T07:46:15.577Z,99046.91
2022-11-14T07:48:43.739Z,99043.25
2022-11-14T07:51:18.947Z,99045.13
2022-11-14T07:53:46.114Z,99046.59
2022-11-14T07:56:13.866Z,99054.16
2022-11-14T07:58:41.909Z,99041.72
2022-11-14T08:01:10.855Z,99043.13
2022-11-14T08:03:44.008Z,99042.25
2022-11-14T08:06:14.408Z,99036.41
2022-11-14T08:08:41.266Z,99030.22
2022-11-14T08:11:08.754Z,99037.91
2022-11-14T08:13:35.737Z,99028.97
2022-11-14T08:16:12.433Z,99026.78
2022-11-14T08:18:40.797Z,99037.84
2022-11-14T08:21:07.662Z,99032.41
2022-11-14T08:23:34.514Z,99020.84
2022-11-14T08:26:01.349Z,99017.53
2022-11-14T08:28:28.407Z,99025.13
2022-11-14T08:31:02.629Z,99034.81
2022-11-14T08:33:30.037Z,99030.34
2022-11-14T08:35:56.752Z,99027.75
2022-11-14T08:38:23.759Z,99024.94
2022-11-14T08:40:50.625Z,99028.81
2022-11-14T08:43:17.336Z,99022.16
2022-11-14T08:45:44.071Z,99038.06
2022-11-14T08:48:12.657Z,99015.69
2022-11-14T08:50:40.325Z,99022.47
2022-11-14T08:53:07.902Z,99006.50
2022-11-14T08:55:34.994Z,99000.47
2022-11-14T08:58:02.070Z,98998.63
2022-11-14T09:00:29.051Z,98996.94
2022-11-14T09:02:55.657Z,98994.16
2022-11-14T09:05:22.616Z,98984.91
2022-11-14T09:07:49.414Z,98973.63
2022-11-14T09:10:16.439Z,98970.47
2022-11-14T09:12:43.351Z,98952.78
2022-11-14T09:15:10.462Z,98961.63
2022-11-14T09:17:37.299Z,98959.59
2022-11-14T09:20:04.664Z,98967.03
2022-11-14T09:22:31.927Z,98951.81
2022-11-14T09:24:58.808Z,98966.84
2022-11-14T09:27:27.115Z,98974.03
2022-11-14T09:29:53.894Z,98985.75
2022-11-14T09:32:20.565Z,98979.03
2022-11-14T09:34:48.804Z,98989.72
2022-11-14T09:37:15.707Z,98994.56
2022-11-14T09:39:42.460Z,99004.41
2022-11-14T09:42:44.568Z,99005.69
2022-11-14T09:45:13.280Z,98993.41
2022-11-14T09:47:43.962Z,99001.94
2022-11-14T09:50:23.085Z,98999.31
2022-11-14T09:53:00.695Z,98991.19
2022-11-14T09:55:36.942Z,98983.59
2022-11-14T09:58:04.697Z,98970.53
2022-11-14T10:00:50.959Z,98967.88
2022-11-14T10:03:30.655Z,98968.22
2022-11-14T10:06:32.221Z,98962.09
2022-11-14T10:09:30.116Z,98958.94
2022-11-14T10:11:57.590Z,98961.72
2022-11-14T10:14:55.831Z,98959.69
2022-11-14T10:17:51.931Z,98959.34
2022-11-14T10:20:33.634Z,98959.63
2022-11-14T10:23:18.308Z,98948.09
2022-11-14T10:26:21.059Z,98957.09
2022-11-14T10:29:27.137Z,98954.41
2022-11-14T10:32:15.003Z,98951.31
2022-11-14T10:35:18.974Z,98950.88
2022-11-14T10:38:10.448Z,98947.31
2022-11-14T10:40:46.342Z,98956.50
2022-11-14T10:43:43.320Z,98963.44
2022-11-14T10:46:27.137Z,98975.63
2022-11-14T10:48:59.007Z,98977.31
2022-11-14T10:51:34.213Z,98975.22
2022-11-14T10:54:06.454Z,98980.28
2022-11-14T10:56:33.708Z,98983.06
2022-11-14T10:59:00.825Z,98986.34
2022-11-14T11:01:45.114Z,98979.16
2022-11-14T11:04:40.112Z,98976.88
2022-11-14T11:07:44.778Z,98974.97
2022-11-14T11:10:40.801Z,98957.25
2022-11-14T11:13:12.153Z,98967.75
2022-11-14T11:15:41.207Z,98958.59
2022-11-14T11:18:35.458Z,98959.09
2022-11-14T11:21:13.653Z,98951.56
2022-11-14T11:23:54.980Z,98944.66
2022-11-14T11:26:31.830Z,98937.88
2022-11-14T11:29:18.574Z,98934.94
2022-11-14T11:31:56.183Z,98934.34
2022-11-14T11:34:25.596Z,98933.47
2022-11-14T11:36:59.678Z,98930.97
2022-11-14T11:39:37.880Z,98934.97
2022-11-14T11:42:10.299Z,98927.94
2022-11-14T11:44:44.281Z,98923.47
2022-11-14T11:47:14.344Z,98928.13
2022-11-14T11:49:50.112Z,98918.00
2022-11-14T11:52:57.882Z,98927.22
2022-11-14T11:55:31.292Z,98924.28
2022-11-14T11:58:05.922Z,98925.78
2022-11-14T12:00:33.237Z,98920.16
2022-11-14T12:03:01.074Z,98921.94
2022-11-14T12:05:55.850Z,98923.03
2022-11-14T12:08:54.992Z,98919.78
2022-11-14T12:11:24.854Z,98924.81
2022-11-14T12:14:31.205Z,98932.56
2022-11-14T12:17:08.713Z,98929.19
2022-11-14T12:20:17.843Z,98927.16
2022-11-14T12:23:15.851Z,98927.69
2022-11-14T12:26:18.496Z,98919.19
2022-11-14T12:29:11.385Z,98926.78
2022-11-14T12:31:39.456Z,98919.56
2022-11-14T12:34:16.987Z,98912.84
2022-11-14T12:36:45.409Z,98921.19
2022-11-14T12:39:26.225Z,98924.06
2022-11-14T12:42:02.678Z,98925.84
2022-11-14T12:44:34.682Z,98920.28
2022-11-14T12:47:13.785Z,98923.81
2022-11-14T12:50:29.994Z,98911.31
2022-11-14T12:52:56.871Z,98910.25
2022-11-14T12:55:46.280Z,98912.91
2022-11-14T12:58:21.065Z,98902.97
2022-11-14T13:01:21.466Z,98902.66
2022-11-14T13:04:53.983Z,98900.50
2022-11-14T13:07:59.386Z,98902.66
2022-11-14T13:10:37.602Z,98895.97
2022-11-14T13:13:31.386Z,98887.31
2022-11-14T13:16:18.147Z,98878.41
2022-11-14T13:19:16.636Z,98871.16
2022-11-14T13:22:15.328Z,98868.16
2022-11-14T13:31:09.709Z,98859.19
2022-11-14T13:33:41.422Z,98862.53
2022-11-14T13:36:11.769Z,98858.06
2022-11-14T13:39:27.919Z,98854.91
2022-11-14T13:42:16.895Z,98842.38
2022-11-14T13:44:51.644Z,98842.75
2022-11-14T13:47:44.598Z,98837.47
2022-11-14T13:50:13.827Z,98840.53
2022-11-14T13:52:43.048Z,98846.59
2022-11-14T13:55:20.272Z,98834.94
2022-11-14T13:58:00.284Z,98830.31
2022-11-14T14:00:31.796Z,98835.72
2022-11-14T14:03:39.981Z,98834.84
2022-11-14T14:06:45.359Z,98830.72
2022-11-14T14:09:25.648Z,98824.59
2022-11-14T14:12:11.294Z,98823.91
2022-11-14T14:15:04.738Z,98824.88
2022-11-14T14:17:57.674Z,98823.09
2022-11-14T14:20:45.564Z,98819.41
2022-11-14T14:23:41.554Z,98815.44
2022-11-14T14:26:34.866Z,98812.53
2022-11-14T14:29:22.845Z,98810.44
2022-11-14T14:31:50.157Z,98806.03
2022-11-14T14:34:25.434Z,98807.34
2022-11-14T14:36:54.477Z,98804.09
2022-11-14T14:39:26.801Z,98807.81
2022-11-14T14:41:55.647Z,98800.72
2022-11-14T14:44:38.472Z,98792.53
2022-11-14T14:47:39.900Z,98801.19
2022-11-14T14:50:15.837Z,98797.22
2022-11-14T14:52:42.665Z,98791.28
2022-11-14T14:55:20.850Z,98798.88
2022-11-14T14:57:47.731Z,98782.88
2022-11-14T15:00:26.161Z,98787.63
2022-11-14T15:02:55.564Z,98781.16
2022-11-14T15:05:26.921Z,98784.75
2022-11-14T15:07:56.669Z,98784.31
2022-11-14T15:10:25.666Z,98777.41
2022-11-14T15:12:53.353Z,98777.31
2022-11-14T15:15:21.554Z,98786.78
2022-11-14T15:17:51.276Z,98775.38
2022-11-14T15:20:26.714Z,98780.38
2022-11-14T15:23:19.992Z,98785.97
2022-11-14T15:25:47.028Z,98782.16
2022-11-14T15:28:19.643Z,98770.03
2022-11-14T15:31:06.998Z,98765.97
2022-11-14T15:33:35.362Z,98767.34
2022-11-14T15:36:13.936Z,98762.09
2022-11-14T15:38:44.780Z,98767.28
2022-11-14T15:41:20.756Z,98765.94
2022-11-14T15:43:53.402Z,98757.22
2022-11-14T15:46:46.841Z,98770.22
2022-11-14T15:49:23.161Z,98760.44
2022-11-14T15:51:52.767Z,98766.09
2022-11-14T15:54:30.080Z,98762.91
2022-11-14T15:57:12.912Z,98770.53
2022-11-14T15:59:39.801Z,98780.44
2022-11-14T16:02:22.385Z,98774.41
2022-11-14T16:04:51.288Z,98765.53
2022-11-14T16:07:18.289Z,98764.84
2022-11-14T16:09:45.524Z,98764.88
2022-11-14T16:12:12.320Z,98757.03
2022-11-14T16:14:39.251Z,98761.44
2022-11-14T16:17:06.506Z,98754.97
2022-11-14T16:19:33.424Z,98755.38
2022-11-14T16:22:03.071Z,98751.06
2022-11-14T16:24:34.170Z,98753.16
2022-11-14T16:27:01.631Z,98754.81
2022-11-14T16:29:28.550Z,98751.09
2022-11-14T16:31:55.946Z,98763.69
2022-11-14T16:34:25.252Z,98758.31
2022-11-14T16:36:59.636Z,98764.25
2022-11-14T16:39:26.756Z,98758.59
2022-11-14T16:41:53.609Z,98757.34
2022-11-14T16:44:20.703Z,98759.81
2022-11-14T16:46:47.813Z,98750.13
2022-11-14T16:49:15.789Z,98750.66
2022-11-14T16:51:48.199Z,98751.78
2022-11-14T16:54:19.762Z,98753.03
2022-11-14T16:56:47.332Z,98751.50
2022-11-14T16:59:14.473Z,98747.50
2022-11-14T17:01:41.964Z,98740.19
2022-11-14T17:04:09.153Z,98751.50
2022-11-14T17:06:35.938Z,98745.69
2022-11-14T17:09:03.202Z,98739.06
2022-11-14T17:11:30.168Z,98741.53
2022-11-14T17:13:57.767Z,98741.00
2022-11-14T17:16:24.691Z,98742.09
2022-11-14T17:18:55.573Z,98741.69
2022-11-14T17:21:23.313Z,98743.28
2022-11-14T17:23:54.838Z,98737.06
2022-11-14T17:26:21.739Z,98738.19
2022-11-14T17:28:48.773Z,98732.41
2022-11-14T17:31:16.441Z,98726.34
2022-11-14T17:33:43.321Z,98724.16
2022-11-14T17:36:11.219Z,98727.06
2022-11-14T17:38:38.773Z,98726.69
2022-11-14T17:41:06.224Z,98716.53
2022-11-14T17:43:39.693Z,98710.47
2022-11-14T17:46:12.610Z,98717.47
2022-11-14T17:48:40.980Z,98721.66
2022-11-14T17:51:10.582Z,98714.09
2022-11-14T17:53:38.023Z,98709.84
2022-11-14T17:56:05.280Z,98714.94
2022-11-14T17:58:32.631Z,98711.63
2022-11-14T18:00:59.975Z,98709.16
2022-11-14T18:03:28.002Z,98715.09
2022-11-14T18:06:05.588Z,98711.38
2022-11-14T18:08:32.644Z,98694.84
2022-11-14T18:11:01.504Z,98703.63
2022-11-14T18:13:28.375Z,98699.50
2022-11-14T18:15:55.418Z,98699.50
2022-11-14T18:18:22.233Z,98690.56
2022-11-14T18:20:48.970Z,98695.91
2022-11-14T18:23:16.140Z,98703.34
2022-11-14T18:25:43.562Z,98697.31
2022-11-14T18:28:10.260Z,98698.94
2022-11-14T18:30:41.483Z,98698.69
2022-11-14T18:33:08.915Z,98702.78
2022-11-14T18:35:35.688Z,98699.50
2022-11-14T18:38:02.555Z,98697.56
2022-11-14T18:40:29.264Z,98695.38
2022-11-14T18:42:56.483Z,98698.13
2022-11-14T18:45:23.369Z,98692.34
2022-11-14T18:47:50.257Z,98690.69
2022-11-14T18:50:17.045Z,98689.84
2022-11-14T18:52:43.750Z,98686.00
2022-11-14T18:55:10.672Z,98682.66
2022-11-14T18:57:37.811Z,98686.38
2022-11-14T19:00:05.616Z,98691.50
2022-11-14T19:02:32.882Z,98686.25
2022-11-14T19:04:59.670Z,98682.25
2022-11-14T19:07:26.516Z,98687.06
2022-11-14T19:09:53.308Z,98679.63
2022-11-14T19:12:22.118Z,98683.75
2022-11-14T19:14:54.016Z,98678.53
2022-11-14T19:17:21.340Z,98680.38
2022-11-14T19:19:53.930Z,98672.09
2022-11-14T19:22:21.443Z,98674.28
2022-11-14T19:24:48.167Z,98676.78
2022-11-14T19:27:14.934Z,98673.88
2022-11-14T19:29:41.842Z,98681.16
2022-11-14T19:32:08.705Z,98683.72
2022-11-14T19:34:35.477Z,98667.06
2022-11-14T19:37:02.430Z,98683.13
2022-11-14T19:39:29.493Z,98685.84
2022-11-14T19:41:56.422Z,98681.44
2022-11-14T19:44:23.507Z,98688.81
2022-11-14T19:46:50.219Z,98685.94
2022-11-14T19:49:16.979Z,98694.03
2022-11-14T19:51:43.904Z,98694.28
2022-11-14T19:54:11.473Z,98692.72
2022-11-14T19:56:38.315Z,98690.00
2022-11-14T19:59:11.059Z,98682.06
2022-11-14T20:01:42.327Z,98681.16
2022-11-14T20:04:12.163Z,98700.50
2022-11-14T20:06:39.225Z,98695.66
2022-11-14T20:09:08.194Z,98695.28
2022-11-14T20:11:35.254Z,98684.59
2022-11-14T20:14:02.974Z,98697.38
2022-11-14T20:16:32.574Z,98696.22
2022-11-14T20:19:00.837Z,98700.69
2022-11-14T20:21:30.012Z,98698.50
2022-11-14T20:23:56.773Z,98701.69
2022-11-14T20:26:24.164Z,98699.19
2022-11-14T20:28:52.975Z,98695.41
2022-11-14T20:31:30.814Z,98698.81
2022-11-14T20:33:57.782Z,98704.06
2022-11-14T20:36:32.003Z,98707.63
2022-11-14T20:39:06.469Z,98701.44
2022-11-14T20:41:34.171Z,98709.72
2022-11-14T20:44:02.402Z,98707.81
2022-11-14T20:46:29.220Z,98697.88
2022-11-14T20:48:57.317Z,98700.00
2022-11-14T20:51:25.916Z,98704.56
2022-11-14T20:53:54.599Z,98703.78
2022-11-14T20:56:22.306Z,98707.06
2022-11-14T20:58:51.915Z,98714.06
2022-11-14T21:01:19.047Z,98714.50
2022-11-14T21:03:46.351Z,98715.88
2022-11-14T21:06:14.319Z,98711.41
2022-11-14T21:08:41.517Z,98702.75
2022-11-14T21:11:12.810Z,98710.09
2022-11-14T21:13:59.227Z,98703.22
2022-11-14T21:16:37.039Z,98706.09
2022-11-14T21:19:05.839Z,98710.78
2022-11-14T21:21:37.461Z,98703.06
2022-11-14T21:24:05.170Z,98717.41
2022-11-14T21:26:34.214Z,98709.13
2022-11-14T21:29:03.935Z,98708.28
2022-11-14T21:31:33.783Z,98709.16
2022-11-14T21:34:06.548Z,98713.00
2022-11-14T21:36:49.686Z,98717.41
2022-11-14T21:39:17.593Z,98715.75
2022-11-14T21:41:48.552Z,98713.00
2022-11-14T21:44:16.806Z,98712.88
2022-11-14T21:46:45.579Z,98716.59
2022-11-14T21:49:12.348Z,98721.69
2022-11-14T21:51:39.255Z,98719.91
2022-11-14T21:54:06.649Z,98718.25
2022-11-14T21:56:35.564Z,98718.25
2022-11-14T21:59:16.406Z,98711.91
2022-11-14T22:02:03.983Z,98720.16
2022-11-14T22:04:31.699Z,98728.19
2022-11-14T22:06:59.940Z,98723.22
2022-11-14T22:09:28.232Z,98722.53
2022-11-14T22:11:55.537Z,98711.06
2022-11-14T22:14:22.567Z,98721.81
2022-11-14T22:16:49.269Z,98727.34
2022-11-14T22:19:16.146Z,98723.06
2022-11-14T22:21:43.021Z,98721.56
2022-11-14T22:24:09.841Z,98723.75
2022-11-14T22:26:40.148Z,98725.97
2022-11-14T22:29:08.048Z,98721.16
2022-11-14T22:31:35.059Z,98713.69
2022-11-14T22:34:01.822Z,98712.88
2022-11-14T22:36:28.658Z,98709.97
2022-11-14T22:38:56.837Z,98717.97
2022-11-14T22:41:31.848Z,98712.97
2022-11-14T22:44:00.586Z,98719.28
2022-11-14T22:46:27.822Z,98716.28
2022-11-14T22:48:54.884Z,98718.63
2022-11-14T22:51:26.628Z,98723.16
2022-11-14T22:53:56.028Z,98715.03
2022-11-14T22:56:24.701Z,98716.28
2022-11-14T22:58:51.640Z,98718.38
2022-11-14T23:01:22.388Z,98716.59
2022-11-14T23:03:53.655Z,98720.97
2022-11-14T23:06:21.154Z,98724.56
2022-11-14T23:08:48.011Z,98729.22
2022-11-14T23:11:18.696Z,98724.69
2022-11-14T23:13:50.729Z,98728.97
2022-11-14T23:16:22.457Z,98718.06
2022-11-14T23:18:50.522Z,98723.06
2022-11-14T23:21:19.857Z,98728.00
2022-11-14T23:23:46.845Z,98718.09
2022-11-14T23:26:15.670Z,98719.88
2022-11-14T23:28:43.001Z,98717.84
2022-11-14T23:31:13.442Z,98716.47
2022-11-14T23:33:40.191Z,98711.47
2022-11-14T23:36:07.188Z,98702.28
2022-11-14T23:38:33.887Z,98713.84
2022-11-14T23:41:02.398Z,98701.97
2022-11-14T23:43:30.510Z,98697.81
2022-11-14T23:45:58.001Z,98704.69
2022-11-14T23:48:25.763Z,98703.72
2022-11-14T23:50:54.691Z,98699.03
2022-11-14T23:53:22.298Z,98692.25
2022-11-14T23:55:57.192Z,98697.75
2022-11-14T23:58:25.162Z,98697.88
